Beckett Point, Washington
Current Conditions -  °F | °C
As of 12:56 PM on Saturday 25 Oct 2014 (Local Time) from KNUW Reporting Station
Light Rain Light Rain  
Wind Chill: 62°   Ceiling: 8500
Heat Index: 62°   Visibility: 10mi
Dew Point: 53°   Wind: 7mph
Humidity: 72%   Direction: 90°E
Pressure: 29.37"   Gusts: NA
Location:  48.026°N, 122.859°W
Report Text: KNUW 251956Z 09006KT 10SM -RA SCT050 BKN085 OVC200 17/12 A2937 RMK AO2 RAB20 PRESFR SLP948 P0000 T01670117 $
Loading
Personal Weather Stations






























Interactive Weather Map
Tropical Storm Tracking
New forecast layout! Learn more

10-Day Weather Forecast

Advertisements
Track Severe Weather on mobile